sensor_id;sensor_type;location;lat;lon;timestamp;pressure;altitude;pressure_sealevel;temperature;humidity
50103;BME280;35993;52.604;10.078;2023-10-13T00:02:03;100844.69;;;14.92;100.00
50103;BME280;35993;52.604;10.078;2023-10-13T00:04:32;100837.53;;;14.91;100.00
50103;BME280;35993;52.604;10.078;2023-10-13T00:07:13;100840.06;;;14.93;100.00
50103;BME280;35993;52.604;10.078;2023-10-13T00:09:51;100840.63;;;14.95;100.00
50103;BME280;35993;52.604;10.078;2023-10-13T00:12:27;100843.34;;;14.95;100.00
50103;BME280;35993;52.604;10.078;2023-10-13T00:14:57;100842.88;;;14.98;100.00
50103;BME280;35993;52.604;10.078;2023-10-13T00:17:32;100840.72;;;15.00;100.00
50103;BME280;35993;52.604;10.078;2023-10-13T00:20:05;100838.00;;;15.00;100.00
50103;BME280;35993;52.604;10.078;2023-10-13T00:22:45;100840.50;;;15.01;100.00
50103;BME280;35993;52.604;10.078;2023-10-13T00:25:17;100841.41;;;15.07;100.00
50103;BME280;35993;52.604;10.078;2023-10-13T00:27:51;100831.56;;;15.06;100.00
50103;BME280;35993;52.604;10.078;2023-10-13T00:30:23;100823.34;;;15.06;100.00
50103;BME280;35993;52.604;10.078;2023-10-13T00:33:24;100830.13;;;15.03;100.00
50103;BME280;35993;52.604;10.078;2023-10-13T00:35:52;100812.41;;;15.06;100.00
50103;BME280;35993;52.604;10.078;2023-10-13T00:38:21;100814.09;;;15.07;100.00
50103;BME280;35993;52.604;10.078;2023-10-13T00:40:49;100809.06;;;15.16;100.00
50103;BME280;35993;52.604;10.078;2023-10-13T00:43:33;100814.53;;;15.16;100.00
50103;BME280;35993;52.604;10.078;2023-10-13T00:46:02;100814.88;;;15.19;100.00
50103;BME280;35993;52.604;10.078;2023-10-13T00:48:37;100803.06;;;15.19;100.00
50103;BME280;35993;52.604;10.078;2023-10-13T00:51:19;100814.88;;;15.19;100.00
50103;BME280;35993;52.604;10.078;2023-10-13T00:54:05;100801.63;;;15.28;100.00
50103;BME280;35993;52.604;10.078;2023-10-13T00:56:40;100788.59;;;15.35;100.00
50103;BME280;35993;52.604;10.078;2023-10-13T00:59:17;100789.19;;;15.37;100.00
50103;BME280;35993;52.604;10.078;2023-10-13T01:01:44;100786.81;;;15.41;100.00
50103;BME280;35993;52.604;10.078;2023-10-13T01:04:15;100790.88;;;15.38;100.00
50103;BME280;35993;52.604;10.078;2023-10-13T01:06:44;100787.28;;;15.38;100.00
50103;BME280;35993;52.604;10.078;2023-10-13T01:09:12;100786.13;;;15.34;100.00
50103;BME280;35993;52.604;10.078;2023-10-13T01:11:49;100790.28;;;15.36;100.00
50103;BME280;35993;52.604;10.078;2023-10-13T01:14:24;100786.22;;;15.39;100.00
50103;BME280;35993;52.604;10.078;2023-10-13T01:16:53;100788.44;;;15.42;100.00
50103;BME280;35993;52.604;10.078;2023-10-13T01:19:37;100783.38;;;15.51;100.00
50103;BME280;35993;52.604;10.078;2023-10-13T01:22:17;100785.56;;;15.49;100.00
50103;BME280;35993;52.604;10.078;2023-10-13T01:24:45;100785.06;;;15.52;100.00
50103;BME280;35993;52.604;10.078;2023-10-13T01:27:17;100777.44;;;15.54;100.00
50103;BME280;35993;52.604;10.078;2023-10-13T01:29:48;100777.25;;;15.61;100.00
50103;BME280;35993;52.604;10.078;2023-10-13T01:32:22;100772.47;;;15.68;100.00
50103;BME280;35993;52.604;10.078;2023-10-13T01:34:51;100774.16;;;15.74;100.00
50103;BME280;35993;52.604;10.078;2023-10-13T01:37:31;100773.94;;;15.76;100.00
50103;BME280;35993;52.604;10.078;2023-10-13T01:40:08;100768.22;;;15.77;100.00
50103;BME280;35993;52.604;10.078;2023-10-13T01:42:46;100763.56;;;15.78;100.00
50103;BME280;35993;52.604;10.078;2023-10-13T01:45:23;100753.78;;;15.82;100.00
50103;BME280;35993;52.604;10.078;2023-10-13T01:47:56;100758.53;;;15.86;100.00
50103;BME280;35993;52.604;10.078;2023-10-13T01:50:24;100751.16;;;15.87;100.00
50103;BME280;35993;52.604;10.078;2023-10-13T01:53:02;100749.50;;;15.86;100.00
50103;BME280;35993;52.604;10.078;2023-10-13T01:55:38;100743.50;;;15.89;100.00
50103;BME280;35993;52.604;10.078;2023-10-13T01:58:19;100744.66;;;15.93;100.00
50103;BME280;35993;52.604;10.078;2023-10-13T02:00:51;100747.38;;;15.93;100.00
50103;BME280;35993;52.604;10.078;2023-10-13T02:03:34;100743.03;;;15.92;100.00
50103;BME280;35993;52.604;10.078;2023-10-13T02:06:08;100739.19;;;15.93;100.00
50103;BME280;35993;52.604;10.078;2023-10-13T02:08:38;100747.47;;;15.98;100.00
50103;BME280;35993;52.604;10.078;2023-10-13T02:11:06;100744.16;;;15.96;100.00
50103;BME280;35993;52.604;10.078;2023-10-13T02:13:34;100736.84;;;16.02;100.00
50103;BME280;35993;52.604;10.078;2023-10-13T02:16:07;100734.44;;;16.05;100.00
50103;BME280;35993;52.604;10.078;2023-10-13T02:18:36;100735.56;;;16.10;100.00
50103;BME280;35993;52.604;10.078;2023-10-13T02:21:08;100735.56;;;16.10;100.00
50103;BME280;35993;52.604;10.078;2023-10-13T02:23:43;100732.09;;;16.14;100.00
50103;BME280;35993;52.604;10.078;2023-10-13T02:26:30;100720.88;;;16.16;100.00
50103;BME280;35993;52.604;10.078;2023-10-13T02:29:18;100721.94;;;16.15;100.00
50103;BME280;35993;52.604;10.078;2023-10-13T02:31:47;100724.44;;;16.16;100.00
50103;BME280;35993;52.604;10.078;2023-10-13T02:34:23;100722.53;;;16.17;100.00
50103;BME280;35993;52.604;10.078;2023-10-13T02:36:57;100716.78;;;16.18;100.00
50103;BME280;35993;52.604;10.078;2023-10-13T02:39:23;100716.91;;;16.29;100.00
50103;BME280;35993;52.604;10.078;2023-10-13T02:42:13;100715.84;;;16.30;100.00
50103;BME280;35993;52.604;10.078;2023-10-13T02:44:51;100716.16;;;16.33;100.00
50103;BME280;35993;52.604;10.078;2023-10-13T02:47:30;100712.78;;;16.26;100.00
50103;BME280;35993;52.604;10.078;2023-10-13T02:49:59;100715.50;;;16.26;100.00
50103;BME280;35993;52.604;10.078;2023-10-13T02:52:42;100708.97;;;16.27;100.00
50103;BME280;35993;52.604;10.078;2023-10-13T02:55:48;100711.97;;;16.26;100.00
50103;BME280;35993;52.604;10.078;2023-10-13T02:58:49;100700.75;;;16.27;100.00
50103;BME280;35993;52.604;10.078;2023-10-13T03:01:37;100691.13;;;16.25;100.00
50103;BME280;35993;52.604;10.078;2023-10-13T03:04:06;100695.47;;;16.20;100.00
50103;BME280;35993;52.604;10.078;2023-10-13T03:06:35;100695.72;;;16.19;100.00
50103;BME280;35993;52.604;10.078;2023-10-13T03:09:28;100696.88;;;16.23;100.00
50103;BME280;35993;52.604;10.078;2023-10-13T03:11:56;100690.88;;;16.26;100.00
50103;BME280;35993;52.604;10.078;2023-10-13T03:14:23;100683.22;;;16.28;100.00
50103;BME280;35993;52.604;10.078;2023-10-13T03:16:55;100682.69;;;16.31;100.00
50103;BME280;35993;52.604;10.078;2023-10-13T03:19:45;100680.16;;;16.25;100.00
50103;BME280;35993;52.604;10.078;2023-10-13T03:22:33;100671.19;;;16.29;100.00
50103;BME280;35993;52.604;10.078;2023-10-13T03:25:06;100675.00;;;16.28;100.00
50103;BME280;35993;52.604;10.078;2023-10-13T03:27:41;100680.22;;;16.30;100.00
50103;BME280;35993;52.604;10.078;2023-10-13T03:30:16;100667.03;;;16.04;100.00
50103;BME280;35993;52.604;10.078;2023-10-13T03:32:46;100662.22;;;15.89;100.00
50103;BME280;35993;52.604;10.078;2023-10-13T03:35:21;100660.25;;;16.29;100.00
50103;BME280;35993;52.604;10.078;2023-10-13T03:37:55;100662.41;;;16.27;100.00
50103;BME280;35993;52.604;10.078;2023-10-13T03:40:25;100657.25;;;16.31;100.00
50103;BME280;35993;52.604;10.078;2023-10-13T03:43:00;100652.84;;;16.30;100.00
50103;BME280;35993;52.604;10.078;2023-10-13T03:45:56;100652.84;;;16.30;100.00
50103;BME280;35993;52.604;10.078;2023-10-13T03:48:36;100646.59;;;16.34;100.00
50103;BME280;35993;52.604;10.078;2023-10-13T03:51:21;100635.88;;;16.33;100.00
50103;BME280;35993;52.604;10.078;2023-10-13T03:53:48;100637.53;;;16.34;100.00
50103;BME280;35993;52.604;10.078;2023-10-13T03:56:28;100631.25;;;16.33;100.00
50103;BME280;35993;52.604;10.078;2023-10-13T03:58:59;100629.06;;;16.35;100.00
50103;BME280;35993;52.604;10.078;2023-10-13T04:01:48;100624.16;;;16.37;100.00
50103;BME280;35993;52.604;10.078;2023-10-13T04:04:33;100627.16;;;16.36;100.00
50103;BME280;35993;52.604;10.078;2023-10-13T04:07:07;100624.91;;;16.33;100.00
50103;BME280;35993;52.604;10.078;2023-10-13T04:09:34;100622.50;;;16.36;100.00
50103;BME280;35993;52.604;10.078;2023-10-13T04:12:11;100623.53;;;16.30;100.00
50103;BME280;35993;52.604;10.078;2023-10-13T04:14:45;100623.56;;;16.35;100.00
50103;BME280;35993;52.604;10.078;2023-10-13T04:17:29;100620.03;;;16.35;100.00
50103;BME280;35993;52.604;10.078;2023-10-13T04:20:01;100607.19;;;16.41;100.00
50103;BME280;35993;52.604;10.078;2023-10-13T04:22:57;100613.97;;;16.33;100.00
50103;BME280;35993;52.604;10.078;2023-10-13T04:25:27;100613.72;;;16.34;100.00
50103;BME280;35993;52.604;10.078;2023-10-13T04:28:12;100613.72;;;16.34;100.00
50103;BME280;35993;52.604;10.078;2023-10-13T04:30:49;100610.72;;;16.36;100.00
50103;BME280;35993;52.604;10.078;2023-10-13T04:33:47;100619.81;;;16.42;100.00
50103;BME280;35993;52.604;10.078;2023-10-13T04:36:27;100600.03;;;16.34;100.00
50103;BME280;35993;52.604;10.078;2023-10-13T04:39:00;100596.19;;;16.35;100.00
50103;BME280;35993;52.604;10.078;2023-10-13T04:41:51;100587.72;;;16.37;100.00
50103;BME280;35993;52.604;10.078;2023-10-13T04:44:24;100591.31;;;16.43;100.00
50103;BME280;35993;52.604;10.078;2023-10-13T04:47:09;100587.72;;;16.37;100.00
50103;BME280;35993;52.604;10.078;2023-10-13T04:49:44;100588.28;;;16.39;100.00
50103;BME280;35993;52.604;10.078;2023-10-13T04:52:15;100584.19;;;16.42;100.00
50103;BME280;35993;52.604;10.078;2023-10-13T04:55:01;100574.97;;;16.53;100.00
50103;BME280;35993;52.604;10.078;2023-10-13T04:58:04;100567.34;;;16.28;100.00
50103;BME280;35993;52.604;10.078;2023-10-13T05:00:40;100563.06;;;16.37;100.00
50103;BME280;35993;52.604;10.078;2023-10-13T05:03:45;100553.53;;;16.17;100.00
50103;BME280;35993;52.604;10.078;2023-10-13T05:06:38;100558.03;;;16.29;100.00
50103;BME280;35993;52.604;10.078;2023-10-13T05:09:14;100550.94;;;16.33;100.00
50103;BME280;35993;52.604;10.078;2023-10-13T05:12:00;100553.19;;;16.36;100.00
50103;BME280;35993;52.604;10.078;2023-10-13T05:14:46;100540.41;;;16.47;100.00
50103;BME280;35993;52.604;10.078;2023-10-13T05:17:34;100539.66;;;16.24;100.00
50103;BME280;35993;52.604;10.078;2023-10-13T05:20:22;100539.66;;;16.24;100.00
50103;BME280;35993;52.604;10.078;2023-10-13T05:23:08;100535.09;;;16.35;100.00
50103;BME280;35993;52.604;10.078;2023-10-13T05:25:53;100535.16;;;16.40;100.00
50103;BME280;35993;52.604;10.078;2023-10-13T05:29:05;100533.97;;;16.31;100.00
50103;BME280;35993;52.604;10.078;2023-10-13T05:31:53;100533.88;;;16.20;100.00
50103;BME280;35993;52.604;10.078;2023-10-13T05:34:37;100519.09;;;16.21;100.00
50103;BME280;35993;52.604;10.078;2023-10-13T05:37:22;100526.16;;;16.17;100.00
50103;BME280;35993;52.604;10.078;2023-10-13T05:40:07;100518.56;;;16.25;100.00
50103;BME280;35993;52.604;10.078;2023-10-13T05:42:52;100523.28;;;16.29;100.00
50103;BME280;35993;52.604;10.078;2023-10-13T05:45:40;100520.78;;;16.28;100.00
50103;BME280;35993;52.604;10.078;2023-10-13T05:48:26;100518.66;;;16.35;100.00
50103;BME280;35993;52.604;10.078;2023-10-13T05:51:12;100518.66;;;16.35;100.00
50103;BME280;35993;52.604;10.078;2023-10-13T05:54:06;100516.19;;;16.33;100.00
50103;BME280;35993;52.604;10.078;2023-10-13T05:56:43;100510.13;;;16.31;100.00
50103;BME280;35993;52.604;10.078;2023-10-13T05:59:34;100513.94;;;16.30;100.00
50103;BME280;35993;52.604;10.078;2023-10-13T06:02:21;100508.28;;;16.37;100.00
50103;BME280;35993;52.604;10.078;2023-10-13T06:05:09;100507.09;;;16.28;100.00
50103;BME280;35993;52.604;10.078;2023-10-13T06:07:59;100502.50;;;16.33;100.00
50103;BME280;35993;52.604;10.078;2023-10-13T06:10:48;100489.91;;;16.37;100.00
50103;BME280;35993;52.604;10.078;2023-10-13T06:13:34;100485.75;;;16.30;100.00
50103;BME280;35993;52.604;10.078;2023-10-13T06:16:22;100495.88;;;16.29;100.00
50103;BME280;35993;52.604;10.078;2023-10-13T06:19:08;100499.31;;;16.14;100.00
50103;BME280;35993;52.604;10.078;2023-10-13T06:22:08;100504.38;;;16.33;100.00
50103;BME280;35993;52.604;10.078;2023-10-13T06:24:53;100504.44;;;16.38;100.00
50103;BME280;35993;52.604;10.078;2023-10-13T06:27:38;100495.72;;;16.41;100.00
50103;BME280;35993;52.604;10.078;2023-10-13T06:30:23;100503.34;;;16.39;100.00
50103;BME280;35993;52.604;10.078;2023-10-13T06:32:50;100500.38;;;16.46;100.00
50103;BME280;35993;52.604;10.078;2023-10-13T06:35:19;100500.91;;;16.43;100.00
50103;BME280;35993;52.604;10.078;2023-10-13T06:37:48;100494.06;;;16.40;100.00
50103;BME280;35993;52.604;10.078;2023-10-13T06:40:14;100486.91;;;16.39;100.00
50103;BME280;35993;52.604;10.078;2023-10-13T06:42:55;100490.84;;;16.48;100.00
50103;BME280;35993;52.604;10.078;2023-10-13T06:45:38;100475.78;;;16.51;100.00
50103;BME280;35993;52.604;10.078;2023-10-13T06:48:05;100476.88;;;16.50;100.00
50103;BME280;35993;52.604;10.078;2023-10-13T06:50:31;100474.88;;;16.40;100.00
50103;BME280;35993;52.604;10.078;2023-10-13T06:53:04;100474.41;;;16.48;100.00
50103;BME280;35993;52.604;10.078;2023-10-13T06:55:38;100470.81;;;16.48;100.00
50103;BME280;35993;52.604;10.078;2023-10-13T06:58:06;100479.03;;;16.48;100.00
50103;BME280;35993;52.604;10.078;2023-10-13T07:00:33;100485.22;;;16.33;100.00
50103;BME280;35993;52.604;10.078;2023-10-13T07:03:00;100485.66;;;16.19;100.00
50103;BME280;35993;52.604;10.078;2023-10-13T07:05:39;100488.94;;;16.16;100.00
50103;BME280;35993;52.604;10.078;2023-10-13T07:08:08;100485.94;;;16.18;100.00
50103;BME280;35993;52.604;10.078;2023-10-13T07:10:37;100490.00;;;16.48;100.00
50103;BME280;35993;52.604;10.078;2023-10-13T07:13:22;100480.72;;;16.54;100.00
50103;BME280;35993;52.604;10.078;2023-10-13T07:15:47;100484.31;;;16.60;100.00
50103;BME280;35993;52.604;10.078;2023-10-13T07:18:15;100481.13;;;16.68;100.00
50103;BME280;35993;52.604;10.078;2023-10-13T07:20:50;100475.13;;;16.38;100.00
50103;BME280;35993;52.604;10.078;2023-10-13T07:23:16;100464.28;;;16.54;100.00
50103;BME280;35993;52.604;10.078;2023-10-13T07:25:56;100456.41;;;16.63;100.00
50103;BME280;35993;52.604;10.078;2023-10-13T07:28:29;100464.94;;;16.66;100.00
50103;BME280;35993;52.604;10.078;2023-10-13T07:30:59;100451.81;;;16.74;100.00
50103;BME280;35993;52.604;10.078;2023-10-13T07:33:24;100445.00;;;16.81;100.00
50103;BME280;35993;52.604;10.078;2023-10-13T07:36:05;100446.38;;;16.84;100.00
50103;BME280;35993;52.604;10.078;2023-10-13T07:38:42;100436.25;;;16.84;100.00
50103;BME280;35993;52.604;10.078;2023-10-13T07:41:09;100427.75;;;16.86;100.00
50103;BME280;35993;52.604;10.078;2023-10-13T07:43:35;100420.63;;;16.85;100.00
50103;BME280;35993;52.604;10.078;2023-10-13T07:46:06;100418.69;;;16.80;100.00
50103;BME280;35993;52.604;10.078;2023-10-13T07:48:41;100411.00;;;16.77;100.00
50103;BME280;35993;52.604;10.078;2023-10-13T07:51:11;100395.94;;;16.80;100.00
50103;BME280;35993;52.604;10.078;2023-10-13T07:53:42;100383.88;;;16.81;100.00
50103;BME280;35993;52.604;10.078;2023-10-13T07:56:09;100388.84;;;16.89;100.00
50103;BME280;35993;52.604;10.078;2023-10-13T07:58:40;100372.94;;;16.86;100.00
50103;BME280;35993;52.604;10.078;2023-10-13T08:01:20;100366.63;;;16.85;100.00
50103;BME280;35993;52.604;10.078;2023-10-13T08:03:46;100365.56;;;16.92;100.00
50103;BME280;35993;52.604;10.078;2023-10-13T08:06:15;100347.75;;;16.94;100.00
50103;BME280;35993;52.604;10.078;2023-10-13T08:08:41;100348.59;;;16.95;100.00
50103;BME280;35993;52.604;10.078;2023-10-13T08:11:16;100346.69;;;17.00;100.00
50103;BME280;35993;52.604;10.078;2023-10-13T08:13:52;100350.53;;;17.04;100.00
50103;BME280;35993;52.604;10.078;2023-10-13T08:16:28;100348.31;;;16.96;100.00
50103;BME280;35993;52.604;10.078;2023-10-13T08:19:14;100335.75;;;17.06;100.00
50103;BME280;35993;52.604;10.078;2023-10-13T08:21:43;100342.28;;;16.99;100.00
50103;BME280;35993;52.604;10.078;2023-10-13T08:24:19;100339.03;;;17.02;100.00
50103;BME280;35993;52.604;10.078;2023-10-13T08:27:03;100339.03;;;17.08;100.00
50103;BME280;35993;52.604;10.078;2023-10-13T08:29:44;100333.00;;;17.06;100.00
50103;BME280;35993;52.604;10.078;2023-10-13T08:32:24;100335.75;;;17.11;100.00
50103;BME280;35993;52.604;10.078;2023-10-13T08:35:00;100334.94;;;17.05;100.00
50103;BME280;35993;52.604;10.078;2023-10-13T08:37:31;100338.78;;;17.14;100.00
50103;BME280;35993;52.604;10.078;2023-10-13T08:40:22;100334.69;;;17.17;100.00
50103;BME280;35993;52.604;10.078;2023-10-13T08:43:10;100323.72;;;17.22;100.00
50103;BME280;35993;52.604;10.078;2023-10-13T08:45:39;100341.28;;;17.26;100.00
50103;BME280;35993;52.604;10.078;2023-10-13T08:48:06;100336.94;;;17.35;100.00
50103;BME280;35993;52.604;10.078;2023-10-13T08:50:48;100344.88;;;17.42;100.00
50103;BME280;35993;52.604;10.078;2023-10-13T08:53:23;100347.91;;;17.51;100.00
50103;BME280;35993;52.604;10.078;2023-10-13T08:56:10;100348.44;;;17.48;100.00
50103;BME280;35993;52.604;10.078;2023-10-13T08:58:59;100342.44;;;17.56;100.00
50103;BME280;35993;52.604;10.078;2023-10-13T09:01:35;100325.97;;;17.66;100.00
50103;BME280;35993;52.604;10.078;2023-10-13T09:04:12;100328.44;;;17.68;100.00
50103;BME280;35993;52.604;10.078;2023-10-13T09:06:48;100337.75;;;17.72;100.00
50103;BME280;35993;52.604;10.078;2023-10-13T09:09:29;100328.16;;;17.69;100.00
50103;BME280;35993;52.604;10.078;2023-10-13T09:12:17;100338.84;;;17.66;100.00
50103;BME280;35993;52.604;10.078;2023-10-13T09:15:09;100344.09;;;17.73;100.00
50103;BME280;35993;52.604;10.078;2023-10-13T09:17:41;100338.31;;;17.74;100.00
50103;BME280;35993;52.604;10.078;2023-10-13T09:20:30;100336.13;;;17.87;100.00
50103;BME280;35993;52.604;10.078;2023-10-13T09:23:10;100344.38;;;17.92;100.00
50103;BME280;35993;52.604;10.078;2023-10-13T09:25:50;100329.81;;;17.96;100.00
50103;BME280;35993;52.604;10.078;2023-10-13T09:28:34;100329.00;;;18.06;100.00
50103;BME280;35993;52.604;10.078;2023-10-13T09:31:02;100324.88;;;18.09;100.00
50103;BME280;35993;52.604;10.078;2023-10-13T09:33:29;100325.44;;;18.11;100.00
50103;BME280;35993;52.604;10.078;2023-10-13T09:36:24;100324.84;;;18.29;100.00
50103;BME280;35993;52.604;10.078;2023-10-13T09:38:52;100319.63;;;18.28;100.00
50103;BME280;35993;52.604;10.078;2023-10-13T09:41:40;100319.34;;;18.24;100.00
50103;BME280;35993;52.604;10.078;2023-10-13T09:44:05;100313.28;;;18.32;100.00
50103;BME280;35993;52.604;10.078;2023-10-13T09:46:37;100300.94;;;18.35;100.00
50103;BME280;35993;52.604;10.078;2023-10-13T09:49:13;100283.31;;;18.36;100.00
50103;BME280;35993;52.604;10.078;2023-10-13T09:51:49;100282.50;;;18.41;100.00
50103;BME280;35993;52.604;10.078;2023-10-13T09:54:31;100280.53;;;18.51;100.00
50103;BME280;35993;52.604;10.078;2023-10-13T09:57:09;100274.69;;;18.69;100.00
50103;BME280;35993;52.604;10.078;2023-10-13T09:59:52;100266.97;;;18.71;100.00
50103;BME280;35993;52.604;10.078;2023-10-13T10:02:22;100266.09;;;18.80;100.00
50103;BME280;35993;52.604;10.078;2023-10-13T10:04:55;100259.19;;;18.93;100.00
50103;BME280;35993;52.604;10.078;2023-10-13T10:07:38;100254.44;;;19.04;100.00
50103;BME280;35993;52.604;10.078;2023-10-13T10:10:06;100251.16;;;19.02;100.00
50103;BME280;35993;52.604;10.078;2023-10-13T10:12:54;100246.38;;;19.13;100.00
50103;BME280;35993;52.604;10.078;2023-10-13T10:15:29;100241.97;;;19.17;100.00
50103;BME280;35993;52.604;10.078;2023-10-13T10:18:02;100236.75;;;19.15;100.00
50103;BME280;35993;52.604;10.078;2023-10-13T10:20:33;100235.94;;;19.15;100.00
50103;BME280;35993;52.604;10.078;2023-10-13T10:23:26;100236.16;;;19.24;100.00
50103;BME280;35993;52.604;10.078;2023-10-13T10:25:54;100230.59;;;19.29;100.00
50103;BME280;35993;52.604;10.078;2023-10-13T10:28:37;100219.59;;;19.29;100.00
50103;BME280;35993;52.604;10.078;2023-10-13T10:31:05;100218.13;;;19.42;100.00
50103;BME280;35993;52.604;10.078;2023-10-13T10:33:35;100217.56;;;19.40;100.00
50103;BME280;35993;52.604;10.078;2023-10-13T10:36:02;100210.81;;;19.56;100.00
50103;BME280;35993;52.604;10.078;2023-10-13T10:38:30;100205.84;;;19.58;100.00
50103;BME280;35993;52.604;10.078;2023-10-13T10:41:06;100203.44;;;19.81;100.00
50103;BME280;35993;52.604;10.078;2023-10-13T10:46:28;100183.84;;;19.88;100.00
50103;BME280;35993;52.604;10.078;2023-10-13T10:48:58;100179.63;;;19.95;100.00
50103;BME280;35993;52.604;10.078;2023-10-13T10:51:28;100167.66;;;20.05;100.00
50103;BME280;35993;52.604;10.078;2023-10-13T10:53:58;100172.91;;;20.26;100.00
50103;BME280;35993;52.604;10.078;2023-10-13T10:56:37;100167.03;;;20.33;100.00
50103;BME280;35993;52.604;10.078;2023-10-13T10:59:05;100157.88;;;20.37;100.00
50103;BME280;35993;52.604;10.078;2023-10-13T11:01:44;100150.28;;;20.48;100.00
50103;BME280;35993;52.604;10.078;2023-10-13T11:04:17;100145.16;;;20.60;100.00
50103;BME280;35993;52.604;10.078;2023-10-13T11:06:55;100131.34;;;20.60;100.00
50103;BME280;35993;52.604;10.078;2023-10-13T11:09:29;100129.09;;;20.62;100.00
50103;BME280;35993;52.604;10.078;2023-10-13T11:12:09;100119.91;;;20.72;100.00
50103;BME280;35993;52.604;10.078;2023-10-13T11:14:42;100111.22;;;20.79;100.00
50103;BME280;35993;52.604;10.078;2023-10-13T11:17:23;100117.50;;;20.85;100.00
50103;BME280;35993;52.604;10.078;2023-10-13T11:20:16;100114.53;;;20.81;100.00
50103;BME280;35993;52.604;10.078;2023-10-13T11:22:48;100116.31;;;21.05;100.00
50103;BME280;35993;52.604;10.078;2023-10-13T11:25:24;100113.78;;;21.08;100.00
50103;BME280;35993;52.604;10.078;2023-10-13T11:27:58;100103.72;;;21.18;100.00
50103;BME280;35993;52.604;10.078;2023-10-13T11:30:34;100107.00;;;21.34;100.00
50103;BME280;35993;52.604;10.078;2023-10-13T11:33:13;100093.00;;;21.44;100.00
50103;BME280;35993;52.604;10.078;2023-10-13T11:35:43;100089.81;;;21.51;100.00
50103;BME280;35993;52.604;10.078;2023-10-13T11:38:21;100086.28;;;21.64;100.00
50103;BME280;35993;52.604;10.078;2023-10-13T11:40:59;100084.97;;;21.75;100.00
50103;BME280;35993;52.604;10.078;2023-10-13T11:43:32;100092.84;;;21.82;100.00
50103;BME280;35993;52.604;10.078;2023-10-13T11:46:10;100078.06;;;22.01;100.00
50103;BME280;35993;52.604;10.078;2023-10-13T11:48:40;100082.38;;;21.93;100.00
50103;BME280;35993;52.604;10.078;2023-10-13T11:51:11;100062.00;;;22.03;100.00
50103;BME280;35993;52.604;10.078;2023-10-13T11:53:48;100055.69;;;21.88;100.00
50103;BME280;35993;52.604;10.078;2023-10-13T11:56:20;100061.41;;;21.92;100.00
50103;BME280;35993;52.604;10.078;2023-10-13T11:58:48;100050.59;;;21.82;98.88
50103;BME280;35993;52.604;10.078;2023-10-13T12:01:15;100059.34;;;21.98;98.76
50103;BME280;35993;52.604;10.078;2023-10-13T12:03:45;100047.72;;;21.87;98.35
50103;BME280;35993;52.604;10.078;2023-10-13T12:06:32;100040.59;;;22.08;96.71
50103;BME280;35993;52.604;10.078;2023-10-13T12:09:08;100036.69;;;22.09;96.83
50103;BME280;35993;52.604;10.078;2023-10-13T12:11:47;100034.31;;;22.17;94.94
50103;BME280;35993;52.604;10.078;2023-10-13T12:14:18;100028.16;;;22.20;95.72
50103;BME280;35993;52.604;10.078;2023-10-13T12:16:53;100035.28;;;22.35;93.76
50103;BME280;35993;52.604;10.078;2023-10-13T12:19:23;100032.25;;;22.22;93.75
50103;BME280;35993;52.604;10.078;2023-10-13T12:21:49;100026.72;;;22.22;92.80
50103;BME280;35993;52.604;10.078;2023-10-13T12:24:16;100022.38;;;22.30;93.17
50103;BME280;35993;52.604;10.078;2023-10-13T12:26:57;100012.97;;;22.31;92.95
50103;BME280;35993;52.604;10.078;2023-10-13T12:29:23;100027.00;;;22.35;91.96
50103;BME280;35993;52.604;10.078;2023-10-13T12:31:57;100023.53;;;22.29;92.32
50103;BME280;35993;52.604;10.078;2023-10-13T12:34:40;100020.88;;;22.38;90.89
50103;BME280;35993;52.604;10.078;2023-10-13T12:37:28;100010.81;;;22.42;90.72
50103;BME280;35993;52.604;10.078;2023-10-13T12:40:15;100006.50;;;22.36;90.98
50103;BME280;35993;52.604;10.078;2023-10-13T12:42:59;100012.75;;;22.41;91.77
50103;BME280;35993;52.604;10.078;2023-10-13T12:45:46;100000.94;;;22.50;91.93
50103;BME280;35993;52.604;10.078;2023-10-13T12:48:35;99993.91;;;22.44;91.81
50103;BME280;35993;52.604;10.078;2023-10-13T12:51:20;99983.97;;;22.42;92.36
50103;BME280;35993;52.604;10.078;2023-10-13T12:53:53;99982.03;;;22.43;92.03
50103;BME280;35993;52.604;10.078;2023-10-13T12:56:20;99984.09;;;22.37;91.49
50103;BME280;35993;52.604;10.078;2023-10-13T12:58:55;99973.75;;;22.43;91.12
50103;BME280;35993;52.604;10.078;2023-10-13T13:01:22;99968.94;;;22.57;92.10
50103;BME280;35993;52.604;10.078;2023-10-13T13:03:49;99975.22;;;22.72;92.03
50103;BME280;35993;52.604;10.078;2023-10-13T13:06:19;99965.38;;;22.88;90.45
50103;BME280;35993;52.604;10.078;2023-10-13T13:08:58;99956.41;;;22.91;89.88
50103;BME280;35993;52.604;10.078;2023-10-13T13:11:27;99947.13;;;22.87;89.11
50103;BME280;35993;52.604;10.078;2023-10-13T13:13:57;99959.38;;;22.95;89.27
50103;BME280;35993;52.604;10.078;2023-10-13T13:16:25;99946.53;;;22.99;88.13
50103;BME280;35993;52.604;10.078;2023-10-13T13:18:55;99941.59;;;22.87;88.21
50103;BME280;35993;52.604;10.078;2023-10-13T13:21:21;99958.00;;;22.84;89.15
50103;BME280;35993;52.604;10.078;2023-10-13T13:23:51;99947.25;;;22.82;88.56